Time,TemperatureF,DewpointF,PressureIn,WindDirection,WindDirectionDegrees,WindSpeedMPH,WindSpeedGustMPH,Humidity,HourlyPrecipIn,Conditions,Clouds,dailyrainin,SoftwareType,DateUTC
2013-03-06 00:02:00,22.0,16.0,-100.00,WNW,291,4.0,7.0,76,0.00,,,0.00,,2013-03-06 06:02:00,
2013-03-06 00:11:00,22.0,16.0,-100.00,WNW,299,4.0,9.0,77,0.00,,,0.00,,2013-03-06 06:11:00,
2013-03-06 00:22:00,21.0,16.0,-100.00,NW,325,3.0,4.0,77,0.00,,,0.00,,2013-03-06 06:22:00,
2013-03-06 00:31:00,21.0,16.0,-100.00,North,7,2.0,3.0,77,0.00,,,0.00,,2013-03-06 06:31:00,
2013-03-06 00:42:00,21.0,16.0,-100.00,NNW,328,2.0,4.0,78,0.00,,,0.00,,2013-03-06 06:42:00,
2013-03-06 00:52:00,20.0,14.0,-100.00,WNW,296,1.0,3.0,78,0.00,,,0.00,,2013-03-06 06:52:00,
2013-03-06 01:01:00,21.0,16.0,-100.00,NW,308,4.0,7.0,78,0.00,,,0.00,,2013-03-06 07:01:00,
2013-03-06 01:11:00,21.0,16.0,-100.00,WNW,294,3.0,5.0,78,0.00,,,0.00,,2013-03-06 07:11:00,
2013-03-06 01:22:00,20.0,16.0,-100.00,WNW,296,4.0,6.0,79,0.00,,,0.00,,2013-03-06 07:22:00,
2013-03-06 01:31:00,20.0,16.0,-100.00,WNW,287,4.0,6.0,80,0.00,,,0.00,,2013-03-06 07:31:00,
2013-03-06 01:42:00,20.0,16.0,-100.00,WNW,301,1.0,4.0,81,0.00,,,0.00,,2013-03-06 07:42:00,
2013-03-06 01:52:00,20.0,14.0,-100.00,WNW,285,2.0,4.0,81,0.00,,,0.00,,2013-03-06 07:52:00,
2013-03-06 02:01:00,20.0,14.0,-100.00,WNW,291,6.0,9.0,81,0.00,,,0.00,,2013-03-06 08:01:00,
2013-03-06 02:11:00,20.0,14.0,-100.00,NNW,330,6.0,9.0,79,0.00,,,0.00,,2013-03-06 08:11:00,
2013-03-06 02:21:00,19.0,14.0,-100.00,WNW,287,4.0,7.0,79,0.00,,,0.00,,2013-03-06 08:21:00,
2013-03-06 02:31:00,19.0,14.0,-100.00,NW,304,6.0,10.0,79,0.00,,,0.00,,2013-03-06 08:31:00,
2013-03-06 02:42:00,19.0,14.0,-100.00,WNW,291,6.0,10.0,80,0.00,,,0.00,,2013-03-06 08:42:00,
2013-03-06 02:52:00,19.0,14.0,-100.00,WNW,287,6.0,11.0,80,0.00,,,0.00,,2013-03-06 08:52:00,
2013-03-06 03:01:00,19.0,14.0,-100.00,NW,308,3.0,7.0,81,0.00,,,0.00,,2013-03-06 09:01:00,
2013-03-06 03:12:00,18.0,14.0,-100.00,WNW,295,2.0,6.0,81,0.00,,,0.00,,2013-03-06 09:12:00,
2013-03-06 03:21:00,18.0,14.0,-100.00,WNW,295,4.0,9.0,81,0.00,,,0.00,,2013-03-06 09:21:00,
2013-03-06 03:31:00,18.0,12.0,-100.00,NW,312,6.0,9.0,80,0.00,,,0.00,,2013-03-06 09:31:00,
2013-03-06 03:42:00,18.0,14.0,-100.00,NW,319,6.0,11.0,81,0.00,,,0.00,,2013-03-06 09:42:00,
2013-03-06 03:51:00,18.0,12.0,-100.00,NW,311,4.0,9.0,81,0.00,,,0.00,,2013-03-06 09:51:00,
2013-03-06 04:01:00,18.0,12.0,-100.00,NW,308,4.0,7.0,81,0.00,,,0.00,,2013-03-06 10:01:00,
2013-03-06 04:11:00,18.0,12.0,-100.00,NW,313,4.0,9.0,81,0.00,,,0.00,,2013-03-06 10:11:00,
2013-03-06 04:21:00,18.0,12.0,-100.00,NW,311,7.0,11.0,81,0.00,,,0.00,,2013-03-06 10:21:00,
2013-03-06 04:31:00,18.0,12.0,-100.00,NW,325,4.0,7.0,81,0.00,,,0.00,,2013-03-06 10:31:00,
2013-03-06 04:42:00,17.0,12.0,-100.00,WNW,295,6.0,11.0,81,0.00,,,0.00,,2013-03-06 10:42:00,
2013-03-06 04:51:00,17.0,12.0,-100.00,WNW,294,4.0,9.0,82,0.00,,,0.00,,2013-03-06 10:51:00,
2013-03-06 05:02:00,17.0,12.0,-100.00,WNW,288,6.0,9.0,83,0.00,,,0.00,,2013-03-06 11:02:00,
2013-03-06 05:11:00,16.0,12.0,-100.00,WNW,282,3.0,6.0,83,0.00,,,0.00,,2013-03-06 11:11:00,
2013-03-06 05:22:00,16.0,12.0,-100.00,West,267,3.0,9.0,82,0.00,,,0.00,,2013-03-06 11:22:00,
2013-03-06 05:32:00,16.0,10.0,-100.00,West,270,4.0,7.0,83,0.00,,,0.00,,2013-03-06 11:32:00,
2013-03-06 05:42:00,16.0,10.0,-100.00,West,278,3.0,6.0,82,0.00,,,0.00,,2013-03-06 11:42:00,
2013-03-06 05:52:00,16.0,10.0,-100.00,WNW,285,6.0,11.0,83,0.00,,,0.00,,2013-03-06 11:52:00,
2013-03-06 06:02:00,15.0,10.0,-100.00,West,272,3.0,4.0,83,0.00,,,0.00,,2013-03-06 12:02:00,
2013-03-06 06:11:00,15.0,10.0,-100.00,West,278,4.0,7.0,84,0.00,,,0.00,,2013-03-06 12:11:00,
2013-03-06 06:21:00,14.0,10.0,-100.00,West,272,4.0,6.0,85,0.00,,,0.00,,2013-03-06 12:21:00,
2013-03-06 06:32:00,15.0,10.0,-100.00,West,275,3.0,6.0,84,0.00,,,0.00,,2013-03-06 12:32:00,
2013-03-06 06:42:00,15.0,10.0,-100.00,West,268,4.0,6.0,84,0.00,,,0.00,,2013-03-06 12:42:00,
2013-03-06 06:52:00,14.0,10.0,-100.00,WSW,258,3.0,6.0,84,0.00,,,0.00,,2013-03-06 12:52:00,
2013-03-06 07:02:00,14.0,10.0,-100.00,West,270,3.0,6.0,85,0.00,,,0.00,,2013-03-06 13:02:00,
2013-03-06 07:11:00,14.0,10.0,-100.00,West,267,4.0,5.0,85,0.00,,,0.00,,2013-03-06 13:11:00,
2013-03-06 07:22:00,15.0,12.0,-100.00,WNW,285,5.0,9.0,85,0.00,,,0.00,,2013-03-06 13:22:00,
2013-03-06 07:32:00,16.0,12.0,-100.00,WNW,289,3.0,5.0,83,0.00,,,0.00,,2013-03-06 13:32:00,
2013-03-06 07:42:00,16.0,12.0,-100.00,NW,309,1.0,3.0,82,0.00,,,0.00,,2013-03-06 13:42:00,
2013-03-06 07:52:00,16.0,12.0,-100.00,ENE,68,0.0,0.0,82,0.00,,,0.00,,2013-03-06 13:52:00,
2013-03-06 08:01:00,17.0,12.0,-100.00,West,278,1.0,3.0,81,0.00,,,0.00,,2013-03-06 14:01:00,
2013-03-06 08:11:00,17.0,12.0,-100.00,NW,311,3.0,6.0,79,0.00,,,0.00,,2013-03-06 14:11:00,
2013-03-06 08:21:00,17.0,10.0,-100.00,WNW,294,4.0,7.0,77,0.00,,,0.00,,2013-03-06 14:21:00,
2013-03-06 08:32:00,18.0,12.0,-100.00,WSW,239,1.0,3.0,76,0.00,,,0.00,,2013-03-06 14:32:00,
2013-03-06 08:42:00,18.0,12.0,-100.00,SW,226,3.0,4.0,74,0.00,,,0.00,,2013-03-06 14:42:00,
2013-03-06 08:52:00,18.0,12.0,-100.00,WSW,250,2.0,4.0,74,0.00,,,0.00,,2013-03-06 14:52:00,
2013-03-06 09:02:00,19.0,12.0,-100.00,SW,234,4.0,6.0,74,0.00,,,0.00,,2013-03-06 15:02:00,
2013-03-06 09:11:00,19.0,12.0,-100.00,SW,233,2.0,4.0,75,0.00,,,0.00,,2013-03-06 15:11:00,
2013-03-06 09:21:00,21.0,14.0,-100.00,WSW,250,2.0,4.0,72,0.00,,,0.00,,2013-03-06 15:21:00,
2013-03-06 09:32:00,21.0,14.0,-100.00,WSW,253,3.0,4.0,72,0.00,,,0.00,,2013-03-06 15:32:00,
2013-03-06 09:42:00,23.0,14.0,-100.00,West,275,2.0,4.0,69,0.00,,,0.00,,2013-03-06 15:42:00,
2013-03-06 09:52:00,22.0,12.0,-100.00,West,261,4.0,7.0,66,0.00,,,0.00,,2013-03-06 15:52:00,
2013-03-06 10:01:00,24.0,14.0,-100.00,SW,230,2.0,5.0,66,0.00,,,0.00,,2013-03-06 16:01:00,
2013-03-06 10:11:00,24.0,12.0,-100.00,WNW,302,1.0,3.0,64,0.00,,,0.00,,2013-03-06 16:11:00,
2013-03-06 10:21:00,24.0,14.0,-100.00,West,275,2.0,4.0,64,0.00,,,0.00,,2013-03-06 16:21:00,
2013-03-06 10:32:00,24.0,10.0,-100.00,NW,323,4.0,7.0,56,0.00,,,0.00,,2013-03-06 16:32:00,
2013-03-06 10:42:00,23.0,12.0,-100.00,NW,311,4.0,6.0,61,0.00,,,0.00,,2013-03-06 16:42:00,
2013-03-06 10:52:00,23.0,12.0,-100.00,NW,304,5.0,8.0,61,0.00,,,0.00,,2013-03-06 16:52:00,
2013-03-06 11:01:00,23.0,12.0,-100.00,NW,304,6.0,12.0,61,0.00,,,0.00,,2013-03-06 17:01:00,
2013-03-06 11:11:00,23.0,10.0,-100.00,NNW,347,7.0,11.0,60,0.00,,,0.00,,2013-03-06 17:11:00,
2013-03-06 11:21:00,24.0,12.0,-100.00,NNW,340,4.0,9.0,61,0.00,,,0.00,,2013-03-06 17:21:00,
2013-03-06 11:32:00,23.0,12.0,-100.00,North,357,6.0,9.0,61,0.00,,,0.00,,2013-03-06 17:32:00,
2013-03-06 11:41:00,23.0,12.0,-100.00,NNW,347,8.0,14.0,62,0.00,,,0.00,,2013-03-06 17:41:00,
2013-03-06 11:52:00,23.0,12.0,-100.00,NNW,339,8.0,12.0,64,0.00,,,0.00,,2013-03-06 17:52:00,
2013-03-06 12:02:00,25.0,14.0,-100.00,NNW,343,4.0,7.0,62,0.00,,,0.00,,2013-03-06 18:02:00,
2013-03-06 12:28:00,26.0,14.0,-100.00,West,280,4.0,6.0,62,0.00,,,0.00,,2013-03-06 18:28:00,
2013-03-06 12:42:00,26.0,14.0,-100.00,NW,308,4.0,9.0,60,0.00,,,0.00,,2013-03-06 18:42:00,
2013-03-06 12:52:00,27.0,16.0,-100.00,West,272,3.0,6.0,61,0.00,,,0.00,,2013-03-06 18:52:00,
2013-03-06 13:02:00,26.0,14.0,-100.00,NW,311,6.0,8.0,61,0.00,,,0.00,,2013-03-06 19:02:00,
2013-03-06 13:11:00,27.0,14.0,-100.00,WNW,302,3.0,6.0,60,0.00,,,0.00,,2013-03-06 19:11:00,
2013-03-06 13:21:00,26.0,16.0,-100.00,West,281,7.0,12.0,62,0.00,,,0.00,,2013-03-06 19:21:00,
2013-03-06 13:32:00,27.0,16.0,-100.00,NW,318,3.0,6.0,62,0.00,,,0.00,,2013-03-06 19:32:00,
2013-03-06 13:43:00,27.0,14.0,-100.00,WSW,256,2.0,8.0,55,0.00,,,0.00,,2013-03-06 19:43:00,
2013-03-06 13:52:00,28.0,16.0,-100.00,WSW,258,2.0,6.0,61,0.00,,,0.00,,2013-03-06 19:52:00,
2013-03-06 14:02:00,27.0,16.0,-100.00,WNW,289,3.0,5.0,63,0.00,,,0.00,,2013-03-06 20:02:00,
2013-03-06 14:11:00,28.0,14.0,-100.00,West,281,5.0,11.0,55,0.00,,,0.00,,2013-03-06 20:11:00,
2013-03-06 14:22:00,29.0,16.0,-100.00,WNW,282,3.0,6.0,56,0.00,,,0.00,,2013-03-06 20:22:00,
2013-03-06 14:32:00,28.0,12.0,-100.00,WNW,301,6.0,10.0,53,0.00,,,0.00,,2013-03-06 20:32:00,
2013-03-06 14:42:00,29.0,14.0,-100.00,West,275,4.0,6.0,55,0.00,,,0.00,,2013-03-06 20:42:00,
2013-03-06 14:52:00,29.0,16.0,-100.00,NW,320,3.0,7.0,56,0.00,,,0.00,,2013-03-06 20:52:00,
2013-03-06 15:02:00,30.0,14.0,-100.00,WNW,284,2.0,5.0,52,0.00,,,0.00,,2013-03-06 21:02:00,
2013-03-06 15:11:00,29.0,14.0,-100.00,NNW,335,4.0,7.0,54,0.00,,,0.00,,2013-03-06 21:11:00,
2013-03-06 15:22:00,28.0,16.0,-100.00,NW,306,4.0,7.0,58,0.00,,,0.00,,2013-03-06 21:22:00,
2013-03-06 15:32:00,28.0,14.0,-100.00,NW,305,4.0,8.0,56,0.00,,,0.00,,2013-03-06 21:32:00,
2013-03-06 15:42:00,29.0,14.0,-100.00,NNW,330,4.0,7.0,52,0.00,,,0.00,,2013-03-06 21:42:00,
2013-03-06 15:51:00,28.0,14.0,-100.00,WNW,295,4.0,6.0,54,0.00,,,0.00,,2013-03-06 21:51:00,
2013-03-06 16:01:00,29.0,14.0,-100.00,NW,306,4.0,7.0,55,0.00,,,0.00,,2013-03-06 22:01:00,
2013-03-06 16:11:00,28.0,14.0,-100.00,North,349,6.0,9.0,54,0.00,,,0.00,,2013-03-06 22:11:00,
2013-03-06 16:21:00,28.0,14.0,-100.00,WNW,299,6.0,11.0,54,0.00,,,0.00,,2013-03-06 22:21:00,
2013-03-06 16:32:00,28.0,14.0,-100.00,WNW,289,4.0,7.0,55,0.00,,,0.00,,2013-03-06 22:32:00,
2013-03-06 16:41:00,28.0,14.0,-100.00,NW,315,4.0,9.0,55,0.00,,,0.00,,2013-03-06 22:41:00,
2013-03-06 16:51:00,28.0,14.0,-100.00,WNW,299,6.0,11.0,54,0.00,,,0.00,,2013-03-06 22:51:00,
2013-03-06 17:01:00,28.0,12.0,-100.00,NW,309,6.0,10.0,53,0.00,,,0.00,,2013-03-06 23:01:00,
2013-03-06 17:11:00,28.0,14.0,-100.00,WNW,288,4.0,6.0,53,0.00,,,0.00,,2013-03-06 23:11:00,
2013-03-06 17:21:00,28.0,12.0,-100.00,WNW,287,3.0,5.0,54,0.00,,,0.00,,2013-03-06 23:21:00,
2013-03-06 17:32:00,28.0,14.0,-100.00,West,272,2.0,4.0,57,0.00,,,0.00,,2013-03-06 23:32:00,
2013-03-06 17:42:00,27.0,12.0,-100.00,NW,308,2.0,4.0,54,0.00,,,0.00,,2013-03-06 23:42:00,
2013-03-06 17:52:00,27.0,12.0,-100.00,West,278,3.0,4.0,54,0.00,,,0.00,,2013-03-06 23:52:00,
2013-03-06 18:01:00,27.0,12.0,-100.00,WNW,289,4.0,5.0,54,0.00,,,0.00,,2013-03-07 00:01:00,
2013-03-06 18:11:00,27.0,12.0,-100.00,NW,318,4.0,9.0,55,0.00,,,0.00,,2013-03-07 00:11:00,
2013-03-06 18:21:00,27.0,12.0,-100.00,WNW,301,4.0,7.0,55,0.00,,,0.00,,2013-03-07 00:21:00,
2013-03-06 18:32:00,27.0,12.0,-100.00,NW,305,4.0,7.0,54,0.00,,,0.00,,2013-03-07 00:32:00,
2013-03-06 18:41:00,27.0,12.0,-100.00,NW,311,4.0,6.0,55,0.00,,,0.00,,2013-03-07 00:41:00,
2013-03-06 18:51:00,26.0,12.0,-100.00,NW,319,2.0,4.0,56,0.00,,,0.00,,2013-03-07 00:51:00,
2013-03-06 19:01:00,26.0,12.0,-100.00,NW,309,2.0,4.0,57,0.00,,,0.00,,2013-03-07 01:01:00,
2013-03-06 19:11:00,26.0,12.0,-100.00,WNW,294,2.0,4.0,57,0.00,,,0.00,,2013-03-07 01:11:00,
2013-03-06 19:21:00,24.0,12.0,-100.00,West,277,2.0,4.0,61,0.00,,,0.00,,2013-03-07 01:21:00,
2013-03-06 19:31:00,24.0,12.0,-100.00,West,270,1.0,4.0,62,0.00,,,0.00,,2013-03-07 01:31:00,
2013-03-06 19:41:00,23.0,12.0,-100.00,West,278,2.0,4.0,65,0.00,,,0.00,,2013-03-07 01:41:00,
2013-03-06 19:51:00,24.0,12.0,-100.00,WNW,294,3.0,5.0,61,0.00,,,0.00,,2013-03-07 01:51:00,
2013-03-06 20:01:00,25.0,12.0,-100.00,NW,318,3.0,5.0,60,0.00,,,0.00,,2013-03-07 02:01:00,
2013-03-06 20:11:00,24.0,12.0,-100.00,NW,319,4.0,6.0,62,0.00,,,0.00,,2013-03-07 02:11:00,
2013-03-06 20:21:00,24.0,12.0,-100.00,NW,304,3.0,6.0,62,0.00,,,0.00,,2013-03-07 02:21:00,
2013-03-06 20:32:00,24.0,12.0,-100.00,NW,306,2.0,4.0,62,0.00,,,0.00,,2013-03-07 02:32:00,
2013-03-06 20:41:00,24.0,12.0,-100.00,NW,306,2.0,4.0,62,0.00,,,0.00,,2013-03-07 02:41:00,
2013-03-06 20:51:00,24.0,12.0,-100.00,NW,306,2.0,4.0,62,0.00,,,0.00,,2013-03-07 02:51:00,
2013-03-06 21:02:00,23.0,12.0,-100.00,WNW,299,1.0,4.0,62,0.00,,,0.00,,2013-03-07 03:02:00,
2013-03-06 21:11:00,23.0,12.0,-100.00,WNW,289,1.0,3.0,62,0.00,,,0.00,,2013-03-07 03:11:00,
2013-03-06 21:21:00,22.0,12.0,-100.00,WSW,248,1.0,2.0,66,0.00,,,0.00,,2013-03-07 03:21:00,
2013-03-06 21:32:00,21.0,12.0,-100.00,West,265,2.0,4.0,69,0.00,,,0.00,,2013-03-07 03:32:00,
2013-03-06 21:42:00,22.0,12.0,-100.00,WNW,296,2.0,4.0,68,0.00,,,0.00,,2013-03-07 03:42:00,
2013-03-06 21:52:00,22.0,12.0,-100.00,WNW,291,3.0,6.0,67,0.00,,,0.00,,2013-03-07 03:52:00,
2013-03-06 22:01:00,23.0,12.0,-100.00,WNW,296,2.0,4.0,65,0.00,,,0.00,,2013-03-07 04:01:00,
2013-03-06 22:11:00,23.0,12.0,-100.00,NNW,336,5.0,7.0,63,0.00,,,0.00,,2013-03-07 04:11:00,
2013-03-06 22:21:00,23.0,12.0,-100.00,NNW,344,4.0,7.0,64,0.00,,,0.00,,2013-03-07 04:21:00,
2013-03-06 22:31:00,23.0,12.0,-100.00,NNW,342,6.0,11.0,63,0.00,,,0.00,,2013-03-07 04:31:00,
2013-03-06 22:42:00,23.0,12.0,-100.00,NNW,332,4.0,6.0,64,0.00,,,0.00,,2013-03-07 04:42:00,
2013-03-06 22:51:00,22.0,12.0,-100.00,North,352,3.0,6.0,65,0.00,,,0.00,,2013-03-07 04:51:00,
2013-03-06 23:01:00,22.0,12.0,-100.00,NNW,344,3.0,7.0,66,0.00,,,0.00,,2013-03-07 05:01:00,
2013-03-06 23:12:00,22.0,12.0,-100.00,NNW,344,4.0,9.0,66,0.00,,,0.00,,2013-03-07 05:12:00,
2013-03-06 23:22:00,22.0,12.0,-100.00,NNW,336,4.0,6.0,66,0.00,,,0.00,,2013-03-07 05:22:00,
2013-03-06 23:32:00,21.0,12.0,-100.00,WSW,244,1.0,2.0,67,0.00,,,0.00,,2013-03-07 05:32:00,
2013-03-06 23:42:00,19.0,10.0,-100.00,SW,222,2.0,3.0,72,0.00,,,0.00,,2013-03-07 05:42:00,
2013-03-06 23:52:00,18.0,10.0,-100.00,West,270,3.0,4.0,74,0.00,,,0.00,,2013-03-07 05:52:00,